الصفحة الرئيسية
METAR-TAF:

METAR-TAF

مطار :

مطار واغادوغو

واغادوغو, بوركينا فاسو

دائرة عرض: 12-21N, خط طول: 001-31W, ارتفاع: 316 متر

مراقبة الطقس الحالي

تاريخ ووقت الإصدار 41 دقيقة قبل الساعة 16:00UTC
ريح 2 عقدة من الشمال/الشمال الغربي
درجة الحرارة 36°درجة مئوية
الرطوبة 22%
ضغط 1010 hPa
الرؤية 10 كم أو أكثر
الغيوم لا تقل 1500 م ولا وجود لمزنة ركامية السحاب الأسود

METAR: DFFD 161600Z 34002KT CAVOK 36/11 Q1010 NOSIG

زمن: 16:41 (16:41 UTC)

توقعات

تاريخ ووقت الإصدار 5ساعات و 41 دقيقة قبل الساعة 11:00UTC
التوقعات صالحة من16 الساعة 12 UTC إلى 17 الساعة 18 UTC
ريح 8 عقدة من الشرق
الرؤية: 8000 متر
مؤقت
من 16 الساعة 17 UTC إلى 16 الساعة 20 UTC
الرؤية: 3500 متر
العجاج
مؤقت
من 17 الساعة 06 UTC إلى 17 الساعة 10 UTC
الرؤية: 2000 متر
العجاج

TAF: DFFD 161100Z 1612/1718 10008KT 8000 NSC TEMPO 1617/1620 3500 HZ TEMPO 1706/1710 2000 HZ

أرصاد الطقس والتوقعات من أكثر من 4000 مطار (تقارير الطقس للمطار METAR والتنبؤ بالطقس بالمطارTAF).

المحطات المتاحة هي النقط الصفراء والحمراء على الخريطة.

حرك المؤشر فوق النقطة لمعرفة اسم المحطة.

ثم انقر لمعرفة أرصاد وتوقعات الطقس.

لتغيير الخارطة: اضغط على الأزرار الخضراء مع رمز الصليب الأسود للتكبير. على الزر الأخضر مع شرطة للتصغير، أو على الأسهم الخضراء للخرائط المجاورة.


METAR-TAF: